Terminal Aerodrome Forecast
Issued by NWS Pocatello, ID

Home | Current Version | Previous Version | Text Only | Print | Product List | Glossary On
Versions: 1 2 3 4 5 6 7 8 9 10 11 12 13 14 15 16 17 18 19
184
FTUS45 KPIH 111728
TAFPIH
TAF
KPIH 111728Z 1118/1218 07009KT 6SM BR SCT080 SCT150
     FM120900 VRB05KT 6SM BR FEW005 BKN140=

USA.gov is the U.S. government's official web portal to all federal, state and local government web resources and services.